This is the latest recevied weather packets stored in our database for station/object KB1LTW-13. If no packets are shown the sender has not sent any weather packets the latest 10 day(s).
| Time | Temp. | Humidity | Pressure | Rain* | Wind** | Luminosity | Snow |
|---|---|---|---|---|---|---|---|
| 1777879878 | 6.11° C | 65% | 1013.6 hPa | 0 mm | - | 0 W/m² | - |
| 1777877508 | 5.56° C | 64% | 1013.6 hPa | 0 mm | - | 0 W/m² | - |
| 1777875079 | 6.11° C | 61% | 1013.6 hPa | 0 mm | - | 0 W/m² | - |
| 1777870904 | 5° C | 60% | 1013.6 hPa | 0 mm | - | 0 W/m² | - |
| 1777868483 | 4.44° C | 58% | 1013.8 hPa | 0 mm | - | 0 W/m² | - |
| 1777867305 | 4.44° C | 61% | 1013.6 hPa | 0 mm | - | 0 W/m² | - |
| 1777865480 | 5.56° C | 51% | 1013.7 hPa | 0 mm | - | 0 W/m² | - |
| 1777864284 | 5.56° C | 49% | 1013.5 hPa | 0 mm | - | 0 W/m² | - |
| 1777860087 | 5.56° C | 51% | 1013.5 hPa | 0 mm | - | 0 W/m² | - |
| 1777855284 | 7.22° C | 48% | 1012.6 hPa | 0 mm | - | 0 W/m² | - |
| 1777854085 | 7.78° C | 42% | 1012.3 hPa | 0 mm | - | 0 W/m² | - |
| 1777852877 | 8.89° C | 39% | 1011.7 hPa | 0 mm | - | 1 W/m² | - |
| 1777845679 | 11.67° C | 33% | 1011.2 hPa | 0 mm | - | 61 W/m² | - |
| 1777844482 | 11.11° C | 34% | 1011.3 hPa | 0 mm | - | 118 W/m² | - |
| 1777843878 | 11.67° C | 34% | 1011.1 hPa | 0 mm | - | 45 W/m² | - |
| 1777840877 | 11.11° C | 35% | 1011.4 hPa | 0 mm | - | 266 W/m² | - |
| 1777839699 | 10° C | 37% | 1011.4 hPa | 0 mm | - | 101 W/m² | - |
| 1777837883 | 10° C | 37% | 1011.2 hPa | 0 mm | - | 130 W/m² | - |
| 1777837278 | 10° C | 39% | 1011.3 hPa | 0 mm | - | 134 W/m² | - |
| 1777834882 | 11.11° C | 33% | 1011.2 hPa | 0 mm | - | 288 W/m² | - |
| 1777831284 | 10° C | 36% | 1011 hPa | 0 mm | - | 237 W/m² | - |
| 1777827086 | 10° C | 37% | 1011.2 hPa | 0 mm | - | 342 W/m² | - |
| 1777826500 | 8.89° C | 41% | 1011.4 hPa | 0 mm | - | 400 W/m² | - |
| 1777821077 | 10° C | 46% | 1011 hPa | 0 mm | - | 787 W/m² | - |
| 1777816879 | 8.33° C | 55% | 1011.2 hPa | 0 mm | - | 584 W/m² | - |
* Rain latest hour (hover to see other rain measurements)
** Current wind speed in m/s (hover to see current wind gust speed)